createdAt,value
2023-01-17T00:02:03.071Z,92418.94
2023-01-17T00:04:50.175Z,92408.72
2023-01-17T00:07:38.023Z,92422.56
2023-01-17T00:10:08.630Z,92420.16
2023-01-17T00:12:36.661Z,92430.63
2023-01-17T00:15:04.805Z,92431.41
2023-01-17T00:17:32.413Z,92428.00
2023-01-17T00:20:20.246Z,92429.81
2023-01-17T00:23:05.794Z,92429.81
2023-01-17T00:25:55.670Z,92430.63
2023-01-17T00:28:22.903Z,92429.00
2023-01-17T00:30:49.745Z,92433.44
2023-01-17T00:33:16.351Z,92445.69
2023-01-17T00:35:44.329Z,92453.53
2023-01-17T00:38:12.821Z,92466.59
2023-01-17T00:40:41.726Z,92460.56
2023-01-17T00:43:28.070Z,92464.97
2023-01-17T00:46:13.987Z,92472.03
2023-01-17T00:48:59.800Z,92476.22
2023-01-17T00:51:47.571Z,92483.47
2023-01-17T00:54:32.948Z,92494.72
2023-01-17T00:57:18.295Z,92485.28
2023-01-17T01:00:03.686Z,92490.50
2023-01-17T01:02:48.839Z,92479.47
2023-01-17T01:05:34.520Z,92479.25
2023-01-17T01:08:21.171Z,92485.28
2023-01-17T01:11:07.532Z,92486.50
2023-01-17T01:13:52.921Z,92499.56
2023-01-17T01:16:38.718Z,92504.78
2023-01-17T01:19:24.053Z,92498.78
2023-01-17T01:22:09.465Z,92502.97
2023-01-17T01:24:56.024Z,92504.78
2023-01-17T01:27:41.432Z,92505.00
2023-01-17T01:30:27.143Z,92500.59
2023-01-17T01:33:12.583Z,92489.34
2023-01-17T01:35:41.871Z,92494.56
2023-01-17T01:38:09.721Z,92493.75
2023-01-17T01:40:44.488Z,92491.94
2023-01-17T01:43:14.308Z,92491.94
2023-01-17T01:45:45.467Z,92494.56
2023-01-17T01:48:24.691Z,92493.75
2023-01-17T01:50:52.618Z,92492.75
2023-01-17T01:53:21.998Z,92506.59
2023-01-17T01:55:52.209Z,92506.81
2023-01-17T01:58:23.172Z,92506.03
2023-01-17T02:00:51.524Z,92503.41
2023-01-17T02:03:25.738Z,92500.00
2023-01-17T02:05:54.049Z,92501.81
2023-01-17T02:08:24.677Z,92493.97
2023-01-17T02:10:54.344Z,92497.59
2023-01-17T02:13:22.272Z,92498.38
2023-01-17T02:16:02.729Z,92504.41
2023-01-17T02:18:41.785Z,92498.38
2023-01-17T02:21:23.667Z,92501.00
2023-01-17T02:24:25.472Z,92501.22
2023-01-17T02:27:03.662Z,92494.97
2023-01-17T02:30:13.547Z,92502.22
2023-01-17T02:33:03.579Z,92501.22
2023-01-17T02:35:39.183Z,92500.19
2023-01-17T02:38:17.460Z,92496.81
2023-01-17T02:40:49.296Z,92493.41
2023-01-17T02:43:18.607Z,92493.41
2023-01-17T02:45:46.705Z,92488.19
2023-01-17T02:48:19.774Z,92493.41
2023-01-17T02:51:10.311Z,92491.78
2023-01-17T02:53:53.007Z,92484.75
2023-01-17T02:56:32.799Z,92489.19
2023-01-17T02:59:09.276Z,92492.81
2023-01-17T03:01:48.986Z,92483.19
2023-01-17T03:04:22.651Z,92492.81
2023-01-17T03:06:54.817Z,92498.03
2023-01-17T03:09:23.584Z,92489.41
2023-01-17T03:11:51.233Z,92495.44
2023-01-17T03:14:18.938Z,92505.88
2023-01-17T03:16:47.079Z,92498.03
2023-01-17T03:19:16.127Z,92504.06
2023-01-17T03:21:45.072Z,92499.84
2023-01-17T03:24:12.720Z,92498.25
2023-01-17T03:26:40.338Z,92501.66
2023-01-17T03:29:07.972Z,92494.63
2023-01-17T03:31:35.636Z,92496.44
2023-01-17T03:34:03.386Z,92499.03
2023-01-17T03:36:30.996Z,92504.06
2023-01-17T03:38:59.969Z,92502.44
2023-01-17T03:41:27.643Z,92498.25
2023-01-17T03:43:55.380Z,92500.88
2023-01-17T03:46:25.098Z,92505.28
2023-01-17T03:48:52.950Z,92502.69
2023-01-17T03:51:20.983Z,92496.66
2023-01-17T03:53:49.996Z,92500.06
2023-01-17T03:56:19.839Z,92500.06
2023-01-17T03:58:47.510Z,92499.03
2023-01-17T04:01:15.516Z,92500.88
2023-01-17T04:03:43.266Z,92501.88
2023-01-17T04:06:11.203Z,92498.25
2023-01-17T04:08:38.844Z,92501.66
2023-01-17T04:11:06.474Z,92499.03
2023-01-17T04:13:35.424Z,92494.84
2023-01-17T04:16:03.146Z,92499.03
2023-01-17T04:18:30.789Z,92492.22
2023-01-17T04:20:58.411Z,92498.25
2023-01-17T04:23:26.073Z,92495.66
2023-01-17T04:25:53.679Z,92496.66
2023-01-17T04:28:21.298Z,92502.69
2023-01-17T04:30:50.391Z,92500.88
2023-01-17T04:33:19.280Z,92501.66
2023-01-17T04:35:46.916Z,92502.69
2023-01-17T04:38:14.580Z,92504.25
2023-01-17T04:40:42.175Z,92507.91
2023-01-17T04:43:09.795Z,92502.69
2023-01-17T04:45:38.766Z,92493.03
2023-01-17T04:48:08.827Z,92501.66
2023-01-17T04:50:36.532Z,92496.44
2023-01-17T04:53:04.188Z,92495.66
2023-01-17T04:55:32.377Z,92488.81
2023-01-17T04:57:59.997Z,92493.03
2023-01-17T05:00:27.716Z,92487.00
2023-01-17T05:02:55.527Z,92494.84
2023-01-17T05:05:24.522Z,92500.06
2023-01-17T05:07:55.788Z,92506.09
2023-01-17T05:10:23.804Z,92506.88
2023-01-17T05:12:55.499Z,92500.66
2023-01-17T05:15:23.413Z,92503.25
2023-01-17T05:17:52.508Z,92505.88
2023-01-17T05:20:20.884Z,92511.88
2023-01-17T05:22:55.768Z,92515.28
2023-01-17T05:25:24.050Z,92512.66
2023-01-17T05:27:51.860Z,92514.28
2023-01-17T05:30:20.340Z,92522.91
2023-01-17T05:32:49.694Z,92523.69
2023-01-17T05:35:19.556Z,92522.69
2023-01-17T05:37:49.108Z,92530.53
2023-01-17T05:40:18.904Z,92531.31
2023-01-17T05:42:47.542Z,92545.19
2023-01-17T05:45:17.037Z,92535.50
2023-01-17T05:47:44.808Z,92535.75
2023-01-17T05:50:13.289Z,92540.16
2023-01-17T05:52:41.526Z,92538.34
2023-01-17T05:55:09.919Z,92546.97
2023-01-17T05:57:39.802Z,92553.00
2023-01-17T06:00:08.865Z,92546.97
2023-01-17T06:02:36.599Z,92548.78
2023-01-17T06:05:05.018Z,92545.38
2023-01-17T06:07:33.339Z,92537.34
2023-01-17T06:10:01.124Z,92537.53
2023-01-17T06:12:28.782Z,92544.38
2023-01-17T06:14:58.125Z,92544.38
2023-01-17T06:17:25.836Z,92540.75
2023-01-17T06:19:53.504Z,92537.53
2023-01-17T06:22:21.119Z,92534.75
2023-01-17T06:24:48.753Z,92528.72
2023-01-17T06:27:16.360Z,92529.53
2023-01-17T06:29:44.019Z,92529.53
2023-01-17T06:32:14.132Z,92538.13
2023-01-17T06:34:42.286Z,92540.75
2023-01-17T06:37:10.049Z,92539.97
2023-01-17T06:39:37.784Z,92532.91
2023-01-17T06:42:05.426Z,92543.34
2023-01-17T06:44:33.098Z,92537.34
2023-01-17T06:47:00.770Z,92537.53
2023-01-17T06:49:29.718Z,92534.94
2023-01-17T06:51:57.356Z,92539.16
2023-01-17T06:54:24.991Z,92540.75
2023-01-17T06:56:52.602Z,92536.53
2023-01-17T06:59:20.225Z,92538.34
2023-01-17T07:01:47.875Z,92546.97
2023-01-17T07:04:15.504Z,92545.38
2023-01-17T07:06:44.766Z,92538.56
2023-01-17T07:09:12.383Z,92536.53
2023-01-17T07:11:39.991Z,92531.50
2023-01-17T07:14:13.424Z,92529.94
2023-01-17T07:16:43.634Z,92528.13
2023-01-17T07:19:11.236Z,92524.72
2023-01-17T07:21:39.059Z,92531.50
2023-01-17T07:24:09.009Z,92525.53
2023-01-17T07:26:37.711Z,92528.91
2023-01-17T07:29:05.791Z,92532.31
2023-01-17T07:31:36.714Z,92536.75
2023-01-17T07:34:04.400Z,92541.19
2023-01-17T07:36:32.068Z,92538.56
2023-01-17T07:38:59.753Z,92528.91
2023-01-17T07:41:28.739Z,92528.91
2023-01-17T07:43:56.541Z,92529.94
2023-01-17T07:46:24.252Z,92523.91
2023-01-17T07:48:51.915Z,92523.69
2023-01-17T07:51:19.632Z,92520.31
2023-01-17T07:53:47.234Z,92506.44
2023-01-17T07:56:14.870Z,92497.81
2023-01-17T07:58:43.892Z,92488.19
2023-01-17T08:01:13.482Z,92484.75
2023-01-17T08:03:41.222Z,92496.00
2023-01-17T08:06:18.404Z,92489.97
2023-01-17T08:08:46.215Z,92491.59
2023-01-17T08:11:13.936Z,92490.78
2023-01-17T08:13:42.981Z,92495.78
2023-01-17T08:16:11.069Z,92487.16
2023-01-17T08:18:39.069Z,92496.81
2023-01-17T08:21:12.777Z,92489.75
2023-01-17T08:23:40.383Z,92488.19
2023-01-17T08:26:07.988Z,92483.75
2023-01-17T08:28:35.761Z,92484.53
2023-01-17T08:31:09.335Z,92491.59
2023-01-17T08:33:37.360Z,92483.75
2023-01-17T08:36:05.173Z,92481.16
2023-01-17T08:38:32.796Z,92474.09
2023-01-17T08:41:01.550Z,92471.50
2023-01-17T08:43:29.231Z,92475.94
2023-01-17T08:45:56.978Z,92479.31
2023-01-17T08:48:26.086Z,92480.34
2023-01-17T08:50:53.707Z,92472.50
2023-01-17T08:53:23.143Z,92469.09
2023-01-17T08:55:58.564Z,92465.50
2023-01-17T08:58:28.228Z,92473.09
2023-01-17T09:01:00.445Z,92466.25
2023-01-17T09:03:29.504Z,92473.09
2023-01-17T09:06:02.844Z,92486.94
2023-01-17T09:08:30.723Z,92482.72
2023-01-17T09:10:58.654Z,92480.94
2023-01-17T09:13:26.376Z,92480.94
2023-01-17T09:15:57.385Z,92473.09
2023-01-17T09:18:25.251Z,92473.09
2023-01-17T09:20:55.355Z,92477.50
2023-01-17T09:23:23.659Z,92478.53
2023-01-17T09:25:54.469Z,92482.97
2023-01-17T09:28:22.279Z,92486.38
2023-01-17T09:30:50.627Z,92476.13
2023-01-17T09:33:19.258Z,92464.69
2023-01-17T09:35:47.327Z,92461.28
2023-01-17T09:38:17.512Z,92457.09
2023-01-17T09:40:48.132Z,92463.06
2023-01-17T09:43:23.155Z,92457.84
2023-01-17T09:45:51.321Z,92451.88
2023-01-17T09:48:25.445Z,92442.19
2023-01-17T09:51:01.698Z,92429.94
2023-01-17T09:53:35.726Z,92430.75
2023-01-17T09:56:08.492Z,92412.47
2023-01-17T09:58:43.522Z,92403.03
2023-01-17T10:01:19.826Z,92392.59
2023-01-17T10:03:59.783Z,92387.38
2023-01-17T10:06:43.312Z,92374.34
2023-01-17T10:09:26.234Z,92382.16
2023-01-17T10:12:14.643Z,92376.19
2023-01-17T10:14:56.859Z,92376.94
2023-01-17T10:17:39.995Z,92365.75
2023-01-17T10:20:26.704Z,92362.09
2023-01-17T10:23:11.423Z,92361.28
2023-01-17T10:25:48.043Z,92355.28
2023-01-17T10:35:43.146Z,92363.91
2023-01-17T10:38:14.160Z,92356.28
2023-01-17T10:40:44.304Z,92350.06
2023-01-17T10:43:18.310Z,92358.69
2023-01-17T10:45:53.509Z,92347.47
2023-01-17T10:48:31.939Z,92349.03
2023-01-17T10:51:10.028Z,92344.84
2023-01-17T11:01:46.415Z,92330.19
2023-01-17T11:04:18.981Z,92326.59
2023-01-17T11:06:57.934Z,92315.34
2023-01-17T11:09:37.764Z,92299.91
2023-01-17T11:12:04.226Z,92291.84
2023-01-17T11:14:35.200Z,92291.84
2023-01-17T11:17:05.531Z,92285.84
2023-01-17T11:28:37.325Z,92276.19
2023-01-17T11:31:06.870Z,92272.56
2023-01-17T11:33:44.629Z,92269.16
2023-01-17T11:36:17.225Z,92269.16
2023-01-17T11:38:54.460Z,92269.94
2023-01-17T11:41:22.136Z,92275.16
2023-01-17T11:43:51.997Z,92269.94
2023-01-17T11:52:38.787Z,92257.94
2023-01-17T11:55:06.160Z,92256.13
2023-01-17T11:57:35.291Z,92244.66
2023-01-17T12:00:15.330Z,92248.28
2023-01-17T12:03:10.227Z,92236.81
2023-01-17T12:05:48.034Z,92231.59
2023-01-17T12:08:30.041Z,92230.03
2023-01-17T12:14:44.334Z,92218.31
2023-01-17T12:17:26.077Z,92209.47
2023-01-17T12:20:00.397Z,92200.84
2023-01-17T12:22:40.404Z,92192.81
2023-01-17T12:25:40.737Z,92189.41
2023-01-17T12:28:18.357Z,92177.16
2023-01-17T12:31:06.149Z,92177.72
2023-01-17T12:41:06.159Z,92157.06
2023-01-17T12:43:36.628Z,92153.66
2023-01-17T12:46:11.300Z,92140.63
2023-01-17T12:48:38.618Z,92144.00
2023-01-17T12:51:13.761Z,92136.19
2023-01-17T12:53:46.594Z,92141.41
2023-01-17T12:56:24.288Z,92126.53
2023-01-17T12:58:55.699Z,92127.34
2023-01-17T13:01:30.221Z,92127.56
2023-01-17T13:04:10.092Z,92124.72
2023-01-17T13:06:52.973Z,92113.50
2023-01-17T13:09:23.975Z,92103.03
2023-01-17T13:11:57.097Z,92103.03
2023-01-17T13:14:24.829Z,92102.03
2023-01-17T13:16:58.644Z,92097.81
2023-01-17T13:19:35.677Z,92100.19
2023-01-17T13:22:08.010Z,92101.00
2023-01-17T13:24:45.433Z,92090.56
2023-01-17T13:27:39.433Z,92090.56
2023-01-17T13:30:49.599Z,92083.78
2023-01-17T13:33:33.520Z,92084.78
2023-01-17T13:36:14.179Z,92091.72
2023-01-17T13:38:57.535Z,92082.38
2023-01-17T13:41:38.232Z,92087.84
2023-01-17T13:44:24.589Z,92077.59
2023-01-17T13:47:01.804Z,92086.69
2023-01-17T13:49:45.083Z,92096.19
2023-01-17T13:52:33.280Z,92095.88
2023-01-17T13:55:02.735Z,92079.75
2023-01-17T13:57:43.752Z,92075.53
2023-01-17T14:04:05.351Z,92046.38
2023-01-17T14:06:37.815Z,92060.22
2023-01-17T14:09:13.007Z,92062.25
2023-01-17T14:11:51.392Z,92053.06
2023-01-17T14:14:56.909Z,92047.72
2023-01-17T14:17:49.275Z,92049.75
2023-01-17T14:20:37.883Z,92040.56
2023-01-17T14:23:24.410Z,92034.34
2023-01-17T14:25:53.746Z,92030.13
2023-01-17T14:28:24.635Z,92030.34
2023-01-17T14:30:56.054Z,92030.53
2023-01-17T14:33:30.101Z,92016.91
2023-01-17T14:36:04.099Z,92007.16
2023-01-17T14:38:33.182Z,91990.75
2023-01-17T14:41:04.213Z,91990.19
2023-01-17T14:43:34.727Z,91988.56
2023-01-17T14:46:05.084Z,91981.00
2023-01-17T14:48:32.917Z,91995.03
2023-01-17T14:51:02.008Z,91985.41
2023-01-17T14:53:31.303Z,91989.00
2023-01-17T14:56:01.366Z,91990.03
2023-01-17T14:58:31.418Z,91991.06
2023-01-17T15:01:07.413Z,91987.06
2023-01-17T15:03:44.566Z,91988.78
2023-01-17T15:06:19.175Z,91989.22
2023-01-17T15:08:47.648Z,91978.00
2023-01-17T15:11:22.466Z,91975.16
2023-01-17T15:13:53.314Z,91977.91
2023-01-17T15:16:27.498Z,91979.06
2023-01-17T15:18:57.327Z,91976.53
2023-01-17T15:21:29.764Z,91981.88
2023-01-17T15:24:00.408Z,91983.25
2023-01-17T15:26:30.915Z,91971.34
2023-01-17T15:29:05.206Z,91963.13
2023-01-17T15:31:45.623Z,91965.28
2023-01-17T15:34:52.831Z,91955.44
2023-01-17T15:40:52.595Z,91943.28
2023-01-17T15:43:25.027Z,91938.66
2023-01-17T15:45:56.985Z,91936.84
2023-01-17T15:48:37.558Z,91936.59
2023-01-17T15:51:05.373Z,91935.59
2023-01-17T15:53:37.169Z,91936.41
2023-01-17T15:56:21.610Z,91923.34
2023-01-17T15:58:50.176Z,91931.75
2023-01-17T16:01:24.893Z,91926.84
2023-01-17T16:03:54.475Z,91926.84
2023-01-17T16:06:45.420Z,91925.84
2023-01-17T16:09:23.032Z,91939.44
2023-01-17T16:11:50.710Z,91932.19
2023-01-17T16:14:18.613Z,91926.97
2023-01-17T16:16:53.389Z,91929.34
2023-01-17T16:19:21.545Z,91926.75
2023-01-17T16:21:50.233Z,91927.53
2023-01-17T16:24:18.570Z,91921.28
2023-01-17T16:26:47.752Z,91919.72
2023-01-17T16:29:15.665Z,91925.50
2023-01-17T16:31:43.443Z,91928.09
2023-01-17T16:34:12.999Z,91923.69
2023-01-17T16:36:40.836Z,91928.09
2023-01-17T16:39:08.800Z,91924.47
2023-01-17T16:41:36.820Z,91930.72
2023-01-17T16:44:06.437Z,91937.28
2023-01-17T16:46:38.122Z,91937.50
2023-01-17T16:49:06.113Z,91942.50
2023-01-17T16:51:34.537Z,91946.69
2023-01-17T16:54:02.950Z,91944.88
2023-01-17T16:56:30.812Z,91953.50
2023-01-17T16:58:58.762Z,91953.50
2023-01-17T17:01:28.180Z,91960.31
2023-01-17T17:03:56.780Z,91960.09
2023-01-17T17:06:24.801Z,91978.34
2023-01-17T17:08:52.624Z,91962.47
2023-01-17T17:11:23.157Z,91974.72
2023-01-17T17:13:52.212Z,91982.34
2023-01-17T17:16:22.524Z,91974.50
2023-01-17T17:18:57.730Z,91982.53
2023-01-17T17:21:25.792Z,91998.00
2023-01-17T17:23:56.947Z,91998.00
2023-01-17T17:26:26.735Z,91998.00
2023-01-17T17:28:55.634Z,92005.00
2023-01-17T17:31:24.083Z,92005.00
2023-01-17T17:33:51.932Z,92018.84
2023-01-17T17:36:21.021Z,92026.69
2023-01-17T17:38:54.542Z,92033.72
2023-01-17T17:41:24.263Z,92030.06
2023-01-17T17:43:52.477Z,92028.50
2023-01-17T17:46:21.291Z,92037.13
2023-01-17T17:48:49.570Z,92037.91
2023-01-17T17:51:27.409Z,92037.91
2023-01-17T17:53:56.050Z,92027.25
2023-01-17T17:56:24.144Z,92002.16
2023-01-17T17:58:51.850Z,91999.31
2023-01-17T18:01:19.863Z,91990.72
2023-01-17T18:03:47.569Z,91998.56
2023-01-17T18:06:15.884Z,91984.47
2023-01-17T18:08:45.109Z,91988.88
2023-01-17T18:11:18.574Z,91995.72
2023-01-17T18:13:50.276Z,92007.94
2023-01-17T18:16:20.290Z,92014.97
2023-01-17T18:18:50.710Z,92016.56
2023-01-17T18:21:23.558Z,92011.34
2023-01-17T18:23:54.639Z,92012.16
2023-01-17T18:26:24.680Z,92008.75
2023-01-17T18:28:53.939Z,92018.16
2023-01-17T18:31:24.224Z,92017.38
2023-01-17T18:33:52.010Z,92033.81
2023-01-17T18:36:19.620Z,92035.66
2023-01-17T18:38:48.785Z,92039.81
2023-01-17T18:41:19.656Z,92048.47
2023-01-17T18:43:47.842Z,92059.69
2023-01-17T18:46:16.996Z,92061.28
2023-01-17T18:48:44.962Z,92063.88
2023-01-17T18:51:14.389Z,92067.06
2023-01-17T18:53:44.340Z,92067.84
2023-01-17T18:56:13.870Z,92076.50
2023-01-17T18:58:44.761Z,92086.13
2023-01-17T19:01:15.087Z,92098.97
2023-01-17T19:03:46.034Z,92100.78
2023-01-17T19:06:16.422Z,92113.03
2023-01-17T19:08:45.026Z,92114.81
2023-01-17T19:11:13.068Z,92115.41
2023-01-17T19:13:42.688Z,92123.47
2023-01-17T19:16:15.256Z,92122.66
2023-01-17T19:18:43.295Z,92132.28
2023-01-17T19:21:13.118Z,92128.91
2023-01-17T19:23:41.436Z,92126.31
2023-01-17T19:26:10.820Z,92122.91
2023-01-17T19:28:39.526Z,92125.50
2023-01-17T19:31:10.458Z,92129.69
2023-01-17T19:33:39.427Z,92136.75
2023-01-17T19:36:10.428Z,92142.97
2023-01-17T19:38:39.701Z,92141.97
2023-01-17T19:41:09.031Z,92139.34
2023-01-17T19:43:36.810Z,92150.78
2023-01-17T19:46:04.916Z,92150.56
2023-01-17T19:48:33.897Z,92140.34
2023-01-17T19:51:06.191Z,92126.31
2023-01-17T19:53:35.719Z,92128.09
2023-01-17T19:56:06.379Z,92135.94
2023-01-17T19:58:34.628Z,92139.34
2023-01-17T20:01:10.304Z,92144.56
2023-01-17T20:03:39.967Z,92145.34
2023-01-17T20:06:08.047Z,92144.34
2023-01-17T20:08:35.956Z,92135.13
2023-01-17T20:11:05.070Z,92130.72
2023-01-17T20:13:32.911Z,92121.09
2023-01-17T20:16:04.144Z,92117.66
2023-01-17T20:18:33.211Z,92116.06
2023-01-17T20:21:05.388Z,92125.50
2023-01-17T20:23:36.450Z,92128.09
2023-01-17T20:26:04.697Z,92126.31
2023-01-17T20:28:33.282Z,92128.09
2023-01-17T20:31:06.677Z,92123.69
2023-01-17T20:33:35.160Z,92141.16
2023-01-17T20:36:10.764Z,92147.19
2023-01-17T20:38:44.607Z,92145.47
2023-01-17T20:41:13.897Z,92139.25
2023-01-17T20:43:42.452Z,92135.50
2023-01-17T20:46:10.816Z,92146.97
2023-01-17T20:48:43.960Z,92136.75
2023-01-17T20:51:13.451Z,92141.97
2023-01-17T20:53:42.375Z,92140.38
2023-01-17T20:56:11.786Z,92144.00
2023-01-17T20:58:39.990Z,92138.00
2023-01-17T21:01:09.344Z,92143.44
2023-01-17T21:03:39.299Z,92139.25
2023-01-17T21:06:08.683Z,92135.03
2023-01-17T21:08:39.645Z,92135.84
2023-01-17T21:11:08.571Z,92134.22
2023-01-17T21:13:36.538Z,92136.06
2023-01-17T21:16:04.615Z,92141.50
2023-01-17T21:18:32.620Z,92137.66
2023-01-17T21:21:03.983Z,92137.22
2023-01-17T21:23:31.595Z,92138.78
2023-01-17T21:26:00.601Z,92139.91
2023-01-17T21:28:30.380Z,92139.47
2023-01-17T21:30:58.505Z,92153.09
2023-01-17T21:33:29.296Z,92138.81
2023-01-17T21:36:07.289Z,92142.56
2023-01-17T21:38:34.914Z,92149.16
2023-01-17T21:41:04.091Z,92147.91
2023-01-17T21:43:32.238Z,92151.09
2023-01-17T21:46:02.896Z,92147.00
2023-01-17T21:48:30.975Z,92153.59
2023-01-17T21:51:04.762Z,92153.91
2023-01-17T21:53:33.136Z,92152.69
2023-01-17T21:56:19.041Z,92150.44
2023-01-17T21:58:53.503Z,92145.78
2023-01-17T22:01:22.812Z,92148.94
2023-01-17T22:03:52.737Z,92144.28
2023-01-17T22:06:21.531Z,92146.47
2023-01-17T22:08:49.373Z,92146.22
2023-01-17T22:11:20.013Z,92159.84
2023-01-17T22:13:49.771Z,92159.44
2023-01-17T22:16:19.862Z,92165.44
2023-01-17T22:18:48.086Z,92168.66
2023-01-17T22:21:17.796Z,92172.59
2023-01-17T22:23:50.349Z,92176.00
2023-01-17T22:26:18.370Z,92176.00
2023-01-17T22:28:46.124Z,92173.16
2023-01-17T22:31:17.903Z,92182.03
2023-01-17T22:33:46.978Z,92187.94
2023-01-17T22:36:15.853Z,92181.56
2023-01-17T22:38:44.150Z,92187.22
2023-01-17T22:41:13.402Z,92186.41
2023-01-17T22:43:43.463Z,92197.09
2023-01-17T22:46:13.060Z,92190.50
2023-01-17T22:48:42.719Z,92183.34
2023-01-17T22:51:12.952Z,92187.00
2023-01-17T22:53:42.171Z,92183.91
2023-01-17T22:56:12.126Z,92180.38
2023-01-17T22:58:44.657Z,92185.03
2023-01-17T23:01:14.001Z,92188.06
2023-01-17T23:03:44.613Z,92189.91
2023-01-17T23:06:13.931Z,92193.09
2023-01-17T23:08:43.552Z,92190.47
2023-01-17T23:11:43.702Z,92190.47
2023-01-17T23:14:15.602Z,92191.50
2023-01-17T23:17:02.897Z,92191.59
2023-01-17T23:19:35.334Z,92185.66
2023-01-17T23:22:16.822Z,92183.72
2023-01-17T23:24:49.855Z,92197.00
2023-01-17T23:27:37.056Z,92194.81
2023-01-17T23:30:05.855Z,92199.03
2023-01-17T23:32:34.307Z,92195.34
2023-01-17T23:35:03.322Z,92198.38
2023-01-17T23:37:45.481Z,92196.78
2023-01-17T23:40:13.553Z,92203.59
2023-01-17T23:42:59.215Z,92194.72
2023-01-17T23:45:27.404Z,92203.38
2023-01-17T23:47:55.339Z,92200.75
2023-01-17T23:50:24.335Z,92201.56
2023-01-17T23:52:51.979Z,92200.75
2023-01-17T23:55:19.611Z,92198.94
2023-01-17T23:57:49.836Z,92200.56
